createdAt,value
2017-05-16T00:00:06.620Z,1021.93
2017-05-16T00:01:07.538Z,1021.96
2017-05-16T00:02:07.224Z,1021.96
2017-05-16T00:03:02.036Z,1021.93
2017-05-16T00:04:07.564Z,1021.99
2017-05-16T00:05:02.499Z,1021.98
2017-05-16T00:05:56.752Z,1021.93
2017-05-16T00:06:51.650Z,1021.97
2017-05-16T00:07:50.814Z,1022.02
2017-05-16T00:08:44.778Z,1021.95
2017-05-16T00:09:45.267Z,1021.98
2017-05-16T00:10:38.706Z,1021.98
2017-05-16T00:11:33.766Z,1021.97
2017-05-16T00:12:28.171Z,1021.99
2017-05-16T00:13:22.679Z,1021.95
2017-05-16T00:14:17.213Z,1021.91
2017-05-16T00:15:16.684Z,1021.90
2017-05-16T00:16:10.790Z,1021.86
2017-05-16T00:17:10.624Z,1021.84
2017-05-16T00:18:05.580Z,1021.85
2017-05-16T00:19:05.112Z,1021.90
2017-05-16T00:19:59.143Z,1021.85
2017-05-16T00:20:53.017Z,1021.86
2017-05-16T00:21:42.322Z,1021.89
2017-05-16T00:22:36.545Z,1021.88
2017-05-16T00:23:36.021Z,1021.92
2017-05-16T00:24:30.094Z,1021.85
2017-05-16T00:25:24.963Z,1021.84
2017-05-16T00:26:24.580Z,1021.84
2017-05-16T00:27:18.783Z,1021.85
2017-05-16T00:28:19.368Z,1021.85
2017-05-16T00:29:12.885Z,1021.80
2017-05-16T00:30:07.879Z,1021.81
2017-05-16T00:31:07.901Z,1021.83
2017-05-16T00:32:02.699Z,1021.81
2017-05-16T00:33:07.868Z,1021.84
2017-05-16T00:34:01.803Z,1021.81
2017-05-16T00:35:01.753Z,1021.82
2017-05-16T00:36:01.745Z,1021.82
2017-05-16T00:36:57.004Z,1021.79
2017-05-16T00:37:56.389Z,1021.80
2017-05-16T00:38:45.421Z,1021.80
2017-05-16T00:39:50.667Z,1021.78
2017-05-16T00:40:45.737Z,1021.76
2017-05-16T00:41:40.202Z,1021.80
2017-05-16T00:42:34.964Z,1021.77
2017-05-16T00:43:34.381Z,1021.80
2017-05-16T00:44:29.167Z,1021.81
2017-05-16T00:45:28.687Z,1021.76
2017-05-16T00:46:28.603Z,1021.78
2017-05-16T00:47:24.163Z,1021.80
2017-05-16T00:48:29.100Z,1021.75
2017-05-16T00:49:24.269Z,1021.74
2017-05-16T00:50:18.568Z,1021.74
2017-05-16T00:51:13.093Z,1021.73
2017-05-16T00:52:13.016Z,1021.75
2017-05-16T00:53:06.601Z,1021.71
2017-05-16T00:54:06.533Z,1021.74
2017-05-16T00:55:00.473Z,1021.73
2017-05-16T00:55:55.770Z,1021.73
2017-05-16T00:56:50.362Z,1021.72
2017-05-16T00:57:44.468Z,1021.74
2017-05-16T00:58:39.095Z,1021.69
2017-05-16T00:59:38.472Z,1021.70
2017-05-16T01:00:32.889Z,1021.70
2017-05-16T01:01:32.763Z,1021.66
2017-05-16T01:02:26.827Z,1021.63
2017-05-16T01:03:21.622Z,1021.66
2017-05-16T01:04:15.856Z,1021.65
2017-05-16T01:05:15.361Z,1021.66
2017-05-16T01:06:15.380Z,1021.63
2017-05-16T01:07:09.706Z,1021.67
2017-05-16T01:08:09.603Z,1021.64
2017-05-16T01:09:09.656Z,1021.67
2017-05-16T01:10:09.491Z,1021.65
2017-05-16T01:11:03.374Z,1021.64
2017-05-16T01:12:04.508Z,1021.69
2017-05-16T01:12:59.011Z,1021.65
2017-05-16T01:13:53.492Z,1021.65
2017-05-16T01:14:48.026Z,1021.64
2017-05-16T01:15:47.585Z,1021.62
2017-05-16T01:16:42.510Z,1021.60
2017-05-16T01:17:42.011Z,1021.59
2017-05-16T01:18:41.904Z,1021.57
2017-05-16T01:19:35.895Z,1021.56
2017-05-16T01:20:35.905Z,1021.54
2017-05-16T01:21:29.833Z,1021.53
2017-05-16T01:22:23.786Z,1021.51
2017-05-16T01:23:23.400Z,1021.52
2017-05-16T01:24:12.683Z,1021.49
2017-05-16T01:25:07.244Z,1021.52
2017-05-16T01:26:12.769Z,1021.46
2017-05-16T01:27:18.705Z,1021.47
2017-05-16T01:28:13.642Z,1021.48
2017-05-16T01:29:13.147Z,1021.46
2017-05-16T01:30:08.147Z,1021.48
2017-05-16T01:31:02.643Z,1021.46
2017-05-16T01:32:02.202Z,1021.42
2017-05-16T01:33:03.093Z,1021.45
2017-05-16T01:33:57.629Z,1021.41
2017-05-16T01:34:52.228Z,1021.43
2017-05-16T01:35:51.617Z,1021.43
2017-05-16T01:36:45.646Z,1021.46
2017-05-16T01:37:39.653Z,1021.43
2017-05-16T01:38:33.567Z,1021.44
2017-05-16T01:39:33.450Z,1021.42
2017-05-16T01:40:27.487Z,1021.41
2017-05-16T01:41:27.154Z,1021.38
2017-05-16T01:42:22.011Z,1021.39
2017-05-16T01:43:16.515Z,1021.37
2017-05-16T01:44:16.032Z,1021.37
2017-05-16T01:45:09.996Z,1021.39
2017-05-16T01:46:09.968Z,1021.37
2017-05-16T01:47:05.353Z,1021.34
2017-05-16T01:47:59.434Z,1021.37
2017-05-16T01:48:58.979Z,1021.31
2017-05-16T01:49:53.891Z,1021.34
2017-05-16T01:50:53.412Z,1021.31
2017-05-16T01:51:47.552Z,1021.32
2017-05-16T01:52:41.333Z,1021.28
2017-05-16T01:53:35.319Z,1021.30
2017-05-16T01:54:35.285Z,1021.30
2017-05-16T01:55:35.199Z,1021.28
2017-05-16T01:56:35.174Z,1021.30
2017-05-16T01:57:29.092Z,1021.29
2017-05-16T01:58:29.064Z,1021.29
2017-05-16T01:59:23.003Z,1021.34
2017-05-16T02:00:23.911Z,1021.27
2017-05-16T02:01:23.517Z,1021.29
2017-05-16T02:02:18.385Z,1021.24
2017-05-16T02:03:18.030Z,1021.26
2017-05-16T02:04:11.855Z,1021.25
2017-05-16T02:05:11.882Z,1021.25
2017-05-16T02:06:05.776Z,1021.25
2017-05-16T02:07:07.192Z,1021.24
2017-05-16T02:08:00.285Z,1021.27
2017-05-16T02:08:55.284Z,1021.25
2017-05-16T02:09:54.770Z,1021.26
2017-05-16T02:10:48.718Z,1021.25
2017-05-16T02:11:48.677Z,1021.25
2017-05-16T02:12:43.651Z,1021.21
2017-05-16T02:13:43.152Z,1021.25
2017-05-16T02:14:38.094Z,1021.21
2017-05-16T02:15:37.580Z,1021.20
2017-05-16T02:16:37.594Z,1021.20
2017-05-16T02:17:32.536Z,1021.21
2017-05-16T02:18:38.018Z,1021.19
2017-05-16T02:19:33.013Z,1021.20
2017-05-16T02:20:27.839Z,1021.19
2017-05-16T02:21:22.017Z,1021.24
2017-05-16T02:22:21.579Z,1021.25
2017-05-16T02:23:16.555Z,1021.23
2017-05-16T02:24:16.000Z,1021.22
2017-05-16T02:25:10.019Z,1021.24
2017-05-16T02:26:04.001Z,1021.22
2017-05-16T02:26:58.908Z,1021.22
2017-05-16T02:27:53.456Z,1021.19
2017-05-16T02:28:47.959Z,1021.22
2017-05-16T02:29:47.493Z,1021.22
2017-05-16T02:30:42.385Z,1021.25
2017-05-16T02:31:42.377Z,1021.27
2017-05-16T02:32:41.900Z,1021.26
2017-05-16T02:33:36.851Z,1021.27
2017-05-16T02:34:42.359Z,1021.27
2017-05-16T02:35:42.783Z,1021.28
2017-05-16T02:36:36.267Z,1021.25
2017-05-16T02:37:36.260Z,1021.25
2017-05-16T02:38:36.205Z,1021.30
2017-05-16T02:39:36.138Z,1021.24
2017-05-16T02:40:31.091Z,1021.24
2017-05-16T02:41:36.572Z,1021.28
2017-05-16T02:42:30.532Z,1021.24
2017-05-16T02:43:25.670Z,1021.23
2017-05-16T02:44:20.063Z,1021.22
2017-05-16T02:45:14.562Z,1021.25
2017-05-16T02:46:09.112Z,1021.23
2017-05-16T02:47:08.805Z,1021.23
2017-05-16T02:48:03.578Z,1021.23
2017-05-16T02:49:03.108Z,1021.23
2017-05-16T02:50:04.045Z,1021.20
2017-05-16T02:50:58.582Z,1021.25
2017-05-16T02:51:53.092Z,1021.22
2017-05-16T02:52:47.692Z,1021.23
2017-05-16T02:53:47.080Z,1021.20
2017-05-16T02:54:41.107Z,1021.20
2017-05-16T02:55:41.474Z,1021.21
2017-05-16T02:56:35.980Z,1021.22
2017-05-16T02:57:35.476Z,1021.20
2017-05-16T02:58:29.440Z,1021.15
2017-05-16T02:59:23.489Z,1021.16
2017-05-16T03:00:12.487Z,1021.19
2017-05-16T03:01:06.878Z,1021.20
2017-05-16T03:02:06.382Z,1021.17
2017-05-16T03:03:07.370Z,1021.15
2017-05-16T03:04:01.906Z,1021.16
2017-05-16T03:04:56.462Z,1021.18
2017-05-16T03:05:50.919Z,1021.16
2017-05-16T03:06:50.424Z,1021.20
2017-05-16T03:07:44.429Z,1021.18
2017-05-16T03:08:44.364Z,1021.16
2017-05-16T03:09:39.279Z,1021.16
2017-05-16T03:10:38.843Z,1021.16
2017-05-16T03:11:32.827Z,1021.19
2017-05-16T03:12:32.780Z,1021.16
2017-05-16T03:13:27.713Z,1021.19
2017-05-16T03:14:22.239Z,1021.18
2017-05-16T03:15:21.772Z,1021.17
2017-05-16T03:16:15.711Z,1021.17
2017-05-16T03:17:15.811Z,1021.12
2017-05-16T03:18:15.610Z,1021.17
2017-05-16T03:19:15.534Z,1021.17
2017-05-16T03:20:09.497Z,1021.16
2017-05-16T03:21:09.500Z,1021.17
2017-05-16T03:22:03.507Z,1021.19
2017-05-16T03:23:03.442Z,1021.20
2017-05-16T03:23:58.335Z,1021.22
2017-05-16T03:24:57.869Z,1021.20
2017-05-16T03:25:51.826Z,1021.19
2017-05-16T03:26:51.775Z,1021.21
2017-05-16T03:27:51.748Z,1021.22
2017-05-16T03:28:45.723Z,1021.23
2017-05-16T03:29:45.651Z,1021.23
2017-05-16T03:30:45.642Z,1021.24
2017-05-16T03:31:40.016Z,1021.26
2017-05-16T03:32:39.543Z,1021.28
2017-05-16T03:33:28.474Z,1021.27
2017-05-16T03:34:22.982Z,1021.28
2017-05-16T03:35:22.501Z,1021.28
2017-05-16T03:36:16.519Z,1021.31
2017-05-16T03:37:11.393Z,1021.29
2017-05-16T03:38:10.965Z,1021.29
2017-05-16T03:39:04.915Z,1021.31
2017-05-16T03:40:05.874Z,1021.30
2017-05-16T03:41:05.404Z,1021.29
2017-05-16T03:42:00.279Z,1021.22
2017-05-16T03:43:05.857Z,1021.25
2017-05-16T03:43:59.779Z,1021.26
2017-05-16T03:44:59.783Z,1021.29
2017-05-16T03:45:53.759Z,1021.24
2017-05-16T03:46:53.715Z,1021.27
2017-05-16T03:47:48.606Z,1021.25
2017-05-16T03:48:43.146Z,1021.23
2017-05-16T03:49:42.674Z,1021.27
2017-05-16T03:50:36.662Z,1021.29
2017-05-16T03:51:31.607Z,1021.27
2017-05-16T03:52:32.131Z,1021.29
2017-05-16T03:53:26.641Z,1021.23
2017-05-16T03:54:21.100Z,1021.26
2017-05-16T03:55:15.703Z,1021.28
2017-05-16T03:56:10.210Z,1021.27
2017-05-16T03:56:57.753Z,1021.25
2017-05-16T03:57:51.710Z,1021.22
2017-05-16T03:58:45.587Z,1021.21
2017-05-16T03:59:45.601Z,1021.22
2017-05-16T04:00:34.532Z,1021.23
2017-05-16T04:01:22.080Z,1021.25
2017-05-16T04:02:05.054Z,1021.24
2017-05-16T04:02:52.579Z,1021.25
2017-05-16T04:03:40.852Z,1021.22
2017-05-16T04:04:29.493Z,1021.22
2017-05-16T04:05:17.001Z,1021.23
2017-05-16T04:06:00.011Z,1021.22
2017-05-16T04:06:47.500Z,1021.21
2017-05-16T04:07:41.571Z,1021.21
2017-05-16T04:08:29.447Z,1021.24
2017-05-16T04:09:23.400Z,1021.25
2017-05-16T04:10:11.348Z,1021.22
2017-05-16T04:10:54.296Z,1021.25
2017-05-16T04:11:42.349Z,1021.28
2017-05-16T04:12:24.784Z,1021.21
2017-05-16T04:13:12.399Z,1021.23
2017-05-16T04:14:00.319Z,1021.21
2017-05-16T04:14:48.285Z,1021.22
2017-05-16T04:15:31.234Z,1021.22
2017-05-16T04:16:18.767Z,1021.23
2017-05-16T04:17:07.726Z,1021.21
2017-05-16T04:17:55.276Z,1021.22
2017-05-16T04:18:38.225Z,1021.20
2017-05-16T04:19:25.773Z,1021.19
2017-05-16T04:20:13.704Z,1021.20
2017-05-16T04:21:01.714Z,1021.18
2017-05-16T04:21:50.607Z,1021.19
2017-05-16T04:22:38.172Z,1021.19
2017-05-16T04:23:21.141Z,1021.20
2017-05-16T04:24:08.700Z,1021.17
2017-05-16T04:24:51.682Z,1021.15
2017-05-16T04:25:39.180Z,1021.17
2017-05-16T04:26:27.074Z,1021.16
2017-05-16T04:27:10.089Z,1021.18
2017-05-16T04:27:57.585Z,1021.19
2017-05-16T04:28:40.578Z,1021.18
2017-05-16T04:29:28.090Z,1021.15
2017-05-16T04:30:16.087Z,1021.16
2017-05-16T04:30:59.001Z,1021.18
2017-05-16T04:31:47.133Z,1021.18
2017-05-16T04:32:34.499Z,1021.19
2017-05-16T04:33:17.475Z,1021.17
2017-05-16T04:34:05.014Z,1021.22
2017-05-16T04:34:48.012Z,1021.22
2017-05-16T04:35:35.473Z,1021.20
2017-05-16T04:36:24.429Z,1021.20
2017-05-16T04:37:11.980Z,1021.22
2017-05-16T04:37:54.924Z,1021.22
2017-05-16T04:38:48.523Z,1021.23
2017-05-16T04:39:31.411Z,1021.25
2017-05-16T04:40:19.995Z,1021.24
2017-05-16T04:41:13.506Z,1021.27
2017-05-16T04:41:56.512Z,1021.23
2017-05-16T04:42:43.978Z,1021.24
2017-05-16T04:43:32.870Z,1021.25
2017-05-16T04:44:20.411Z,1021.25
2017-05-16T04:45:08.399Z,1021.21
2017-05-16T04:45:51.383Z,1021.23
2017-05-16T04:46:38.900Z,1021.23
2017-05-16T04:47:26.883Z,1021.21
2017-05-16T04:48:15.794Z,1021.23
2017-05-16T04:49:03.392Z,1021.25
2017-05-16T04:49:46.323Z,1021.21
2017-05-16T04:50:33.892Z,1021.21
2017-05-16T04:51:16.780Z,1021.24
2017-05-16T04:52:04.365Z,1021.26
2017-05-16T04:52:52.285Z,1021.26
2017-05-16T04:53:35.292Z,1021.31
2017-05-16T04:54:22.800Z,1021.29
2017-05-16T04:55:05.771Z,1021.32
2017-05-16T04:55:53.264Z,1021.32
2017-05-16T04:56:41.372Z,1021.30
2017-05-16T04:57:29.208Z,1021.28
2017-05-16T04:58:12.203Z,1021.31
2017-05-16T04:58:59.694Z,1021.30
2017-05-16T04:59:42.678Z,1021.31
2017-05-16T05:00:30.199Z,1021.28
2017-05-16T05:01:19.148Z,1021.31
2017-05-16T05:02:06.702Z,1021.29
2017-05-16T05:02:49.662Z,1021.29
2017-05-16T05:03:37.629Z,1021.30
2017-05-16T05:04:20.188Z,1021.28
2017-05-16T05:05:07.668Z,1021.31
2017-05-16T05:05:50.604Z,1021.28
2017-05-16T05:06:44.649Z,1021.32
2017-05-16T05:07:33.104Z,1021.30
2017-05-16T05:08:20.678Z,1021.31
2017-05-16T05:09:08.563Z,1021.30
2017-05-16T05:09:57.581Z,1021.30
2017-05-16T05:10:45.078Z,1021.30
2017-05-16T05:11:28.088Z,1021.35
2017-05-16T05:12:15.599Z,1021.34
2017-05-16T05:12:58.694Z,1021.33
2017-05-16T05:13:46.087Z,1021.35
2017-05-16T05:14:40.024Z,1021.33
2017-05-16T05:15:28.987Z,1021.33
2017-05-16T05:16:22.614Z,1021.34
2017-05-16T05:17:22.515Z,1021.36
2017-05-16T05:18:11.479Z,1021.36
2017-05-16T05:18:58.954Z,1021.35
2017-05-16T05:19:47.990Z,1021.33
2017-05-16T05:20:35.592Z,1021.27
2017-05-16T05:21:24.380Z,1021.28
2017-05-16T05:22:11.950Z,1021.32
2017-05-16T05:22:54.928Z,1021.34
2017-05-16T05:23:43.471Z,1021.34
2017-05-16T05:24:31.955Z,1021.33
2017-05-16T05:25:19.474Z,1021.36
2017-05-16T05:26:02.397Z,1021.35
2017-05-16T05:26:50.012Z,1021.30
2017-05-16T05:27:49.914Z,1021.30
2017-05-16T05:28:45.076Z,1021.31
2017-05-16T05:29:50.399Z,1021.34
2017-05-16T05:30:50.409Z,1021.32
2017-05-16T05:31:45.809Z,1021.34
2017-05-16T05:32:38.855Z,1021.39
2017-05-16T05:33:32.814Z,1021.37
2017-05-16T05:34:16.109Z,1021.37
2017-05-16T05:35:03.306Z,1021.37
2017-05-16T05:35:57.280Z,1021.40
2017-05-16T05:36:51.194Z,1021.40
2017-05-16T05:37:46.155Z,1021.39
2017-05-16T05:38:33.681Z,1021.40
2017-05-16T05:39:22.008Z,1021.40
2017-05-16T05:40:09.631Z,1021.42
2017-05-16T05:41:03.599Z,1021.43
2017-05-16T05:41:51.517Z,1021.42
2017-05-16T05:42:45.505Z,1021.41
2017-05-16T05:43:39.420Z,1021.47
2017-05-16T05:44:34.014Z,1021.43
2017-05-16T05:45:27.409Z,1021.47
2017-05-16T05:46:21.325Z,1021.47
2017-05-16T05:47:16.278Z,1021.44
2017-05-16T05:48:09.818Z,1021.44
2017-05-16T05:49:03.771Z,1021.43
2017-05-16T05:49:58.078Z,1021.42
2017-05-16T05:50:57.709Z,1021.44
2017-05-16T05:51:47.090Z,1021.45
2017-05-16T05:52:34.130Z,1021.46
2017-05-16T05:53:23.099Z,1021.48
2017-05-16T05:54:17.660Z,1021.49
2017-05-16T05:55:12.450Z,1021.47
2017-05-16T05:56:06.690Z,1021.45
2017-05-16T05:57:06.200Z,1021.43
2017-05-16T05:58:01.173Z,1021.43
2017-05-16T05:59:00.660Z,1021.48
2017-05-16T05:59:54.959Z,1021.47
2017-05-16T06:00:49.740Z,1021.48
2017-05-16T06:01:50.074Z,1021.46
2017-05-16T06:02:44.726Z,1021.46
2017-05-16T06:03:44.167Z,1021.46
2017-05-16T06:04:45.155Z,1021.45
2017-05-16T06:05:44.660Z,1021.44
2017-05-16T06:06:38.651Z,1021.40
2017-05-16T06:07:38.593Z,1021.43
2017-05-16T06:08:32.523Z,1021.44
2017-05-16T06:09:26.539Z,1021.44
2017-05-16T06:10:21.454Z,1021.45
2017-05-16T06:11:26.957Z,1021.45
2017-05-16T06:12:20.917Z,1021.44
2017-05-16T06:13:08.872Z,1021.50
2017-05-16T06:13:56.865Z,1021.44
2017-05-16T06:14:44.813Z,1021.46
2017-05-16T06:15:33.811Z,1021.47
2017-05-16T06:16:21.276Z,1021.44
2017-05-16T06:17:09.288Z,1021.47
2017-05-16T06:17:57.280Z,1021.46
2017-05-16T06:18:46.198Z,1021.46
2017-05-16T06:19:33.773Z,1021.46
2017-05-16T06:20:16.667Z,1021.47
2017-05-16T06:21:04.220Z,1021.48
2017-05-16T06:21:47.621Z,1021.50
2017-05-16T06:22:34.679Z,1021.46
2017-05-16T06:23:22.634Z,1021.48
2017-05-16T06:24:10.603Z,1021.49
2017-05-16T06:24:53.599Z,1021.49
2017-05-16T06:25:41.113Z,1021.52
2017-05-16T06:26:24.103Z,1021.50
2017-05-16T06:27:11.592Z,1021.50
2017-05-16T06:28:11.579Z,1021.53
2017-05-16T06:29:05.609Z,1021.55
2017-05-16T06:30:00.507Z,1021.60
2017-05-16T06:30:54.046Z,1021.56
2017-05-16T06:31:49.544Z,1021.55
2017-05-16T06:32:42.529Z,1021.59
2017-05-16T06:33:31.564Z,1021.56
2017-05-16T06:34:31.055Z,1021.58
2017-05-16T06:35:24.982Z,1021.57
2017-05-16T06:36:25.892Z,1021.58
2017-05-16T06:37:19.417Z,1021.58
2017-05-16T06:38:14.414Z,1021.62
2017-05-16T06:39:13.936Z,1021.58
2017-05-16T06:40:08.885Z,1021.62
2017-05-16T06:41:08.399Z,1021.63
2017-05-16T06:42:02.373Z,1021.61
2017-05-16T06:42:57.293Z,1021.66
2017-05-16T06:43:56.818Z,1021.64
2017-05-16T06:44:51.819Z,1021.69
2017-05-16T06:45:51.410Z,1021.69
2017-05-16T06:46:39.264Z,1021.75
2017-05-16T06:47:40.232Z,1021.74
2017-05-16T06:48:39.810Z,1021.73
2017-05-16T06:49:34.689Z,1021.77
2017-05-16T06:50:34.235Z,1021.76
2017-05-16T06:51:23.237Z,1021.76
2017-05-16T06:52:16.706Z,1021.81
2017-05-16T06:53:10.716Z,1021.79
2017-05-16T06:54:05.661Z,1021.77
2017-05-16T06:54:53.170Z,1021.78
2017-05-16T06:55:42.147Z,1021.80
2017-05-16T06:56:29.707Z,1021.76
2017-05-16T06:57:17.593Z,1021.81
2017-05-16T06:58:05.618Z,1021.80
2017-05-16T06:59:05.553Z,1021.75
2017-05-16T06:59:59.497Z,1021.81
2017-05-16T07:00:48.495Z,1021.76
2017-05-16T07:01:53.928Z,1021.75
2017-05-16T07:02:43.009Z,1021.79
2017-05-16T07:03:31.543Z,1021.85
2017-05-16T07:04:20.031Z,1021.83
2017-05-16T07:05:13.522Z,1021.81
2017-05-16T07:06:02.507Z,1021.82
2017-05-16T07:06:56.662Z,1021.89
2017-05-16T07:07:50.006Z,1021.86
2017-05-16T07:08:37.905Z,1021.85
2017-05-16T07:09:32.876Z,1021.93
2017-05-16T07:10:32.432Z,1021.89
2017-05-16T07:11:21.369Z,1021.87
2017-05-16T07:12:15.262Z,1021.91
2017-05-16T07:13:03.894Z,1021.93
2017-05-16T07:13:57.413Z,1021.92
2017-05-16T07:14:40.410Z,1021.90
2017-05-16T07:15:27.906Z,1021.97
2017-05-16T07:16:16.877Z,1021.92
2017-05-16T07:17:05.398Z,1021.96
2017-05-16T07:17:53.259Z,1021.98
2017-05-16T07:18:35.912Z,1021.97
2017-05-16T07:19:23.443Z,1021.97
2017-05-16T07:20:12.397Z,1021.96
2017-05-16T07:21:06.932Z,1021.98
2017-05-16T07:22:06.389Z,1021.95
2017-05-16T07:22:55.785Z,1021.98
2017-05-16T07:23:43.975Z,1021.98
2017-05-16T07:24:43.430Z,1022.01
2017-05-16T07:25:37.426Z,1021.98
2017-05-16T07:26:31.366Z,1021.97
2017-05-16T07:27:19.349Z,1021.96
2017-05-16T07:28:08.289Z,1021.98
2017-05-16T07:29:02.802Z,1021.97
2017-05-16T07:29:51.415Z,1021.97
2017-05-16T07:30:39.897Z,1021.93
2017-05-16T07:31:39.415Z,1021.93
2017-05-16T07:32:28.378Z,1021.92
2017-05-16T07:33:16.934Z,1021.94
2017-05-16T07:34:10.452Z,1021.93
2017-05-16T07:34:58.393Z,1021.93
2017-05-16T07:35:41.388Z,1021.94
2017-05-16T07:36:34.886Z,1021.93
2017-05-16T07:37:34.825Z,1021.93
2017-05-16T07:38:28.868Z,1021.92
2017-05-16T07:39:22.852Z,1021.94
2017-05-16T07:40:10.796Z,1021.97
2017-05-16T07:41:04.746Z,1021.92
2017-05-16T07:41:58.722Z,1021.89
2017-05-16T07:42:53.675Z,1021.89
2017-05-16T07:43:42.236Z,1021.88
2017-05-16T07:44:35.715Z,1021.86
2017-05-16T07:45:29.826Z,1021.85
2017-05-16T07:46:23.630Z,1021.81
2017-05-16T07:47:11.659Z,1021.81
2017-05-16T07:47:54.604Z,1021.87
2017-05-16T07:48:42.097Z,1021.84
2017-05-16T07:49:25.090Z,1021.83
2017-05-16T07:50:12.678Z,1021.86
2017-05-16T07:51:06.606Z,1021.84
2017-05-16T07:52:00.553Z,1021.85
2017-05-16T07:52:54.494Z,1021.87
2017-05-16T07:53:55.746Z,1021.89
2017-05-16T07:54:49.025Z,1021.94
2017-05-16T07:55:32.725Z,1021.91
2017-05-16T07:56:26.935Z,1021.90
2017-05-16T07:57:14.048Z,1021.89
2017-05-16T07:58:02.001Z,1021.87
2017-05-16T07:58:49.983Z,1021.93
2017-05-16T07:59:43.970Z,1021.92
2017-05-16T08:00:38.529Z,1021.90
2017-05-16T08:01:25.895Z,1021.94
2017-05-16T08:02:14.850Z,1021.95
2017-05-16T08:03:09.374Z,1021.89
2017-05-16T08:03:56.882Z,1021.91
2017-05-16T08:04:50.935Z,1021.86
2017-05-16T08:05:44.874Z,1021.91
2017-05-16T08:06:44.826Z,1021.84
2017-05-16T08:07:34.187Z,1021.84
2017-05-16T08:08:28.300Z,1021.86
2017-05-16T08:09:21.786Z,1021.84
2017-05-16T08:10:15.820Z,1021.88
2017-05-16T08:11:03.980Z,1021.87
2017-05-16T08:11:57.774Z,1021.95
2017-05-16T08:12:51.717Z,1021.91
2017-05-16T08:13:40.722Z,1021.92
2017-05-16T08:14:28.527Z,1021.93
2017-05-16T08:15:16.206Z,1021.96
2017-05-16T08:16:10.203Z,1021.96
2017-05-16T08:16:59.147Z,1021.99
2017-05-16T08:17:58.735Z,1021.92
2017-05-16T08:18:47.634Z,1021.97
2017-05-16T08:19:41.178Z,1021.97
2017-05-16T08:20:29.113Z,1021.94
2017-05-16T08:21:30.098Z,1021.93
2017-05-16T08:22:23.622Z,1021.93
2017-05-16T08:23:17.613Z,1021.92
2017-05-16T08:24:05.654Z,1021.90
2017-05-16T08:24:59.712Z,1021.88
2017-05-16T08:25:54.524Z,1021.91
2017-05-16T08:26:42.422Z,1021.90
2017-05-16T08:27:35.982Z,1021.92
2017-05-16T08:28:30.983Z,1021.94
2017-05-16T08:29:24.494Z,1021.95
2017-05-16T08:30:13.484Z,1021.92
2017-05-16T08:31:13.000Z,1021.91
2017-05-16T08:32:01.027Z,1021.92
2017-05-16T08:32:55.071Z,1021.94
2017-05-16T08:33:42.890Z,1021.90
2017-05-16T08:34:43.879Z,1021.89
2017-05-16T08:35:32.872Z,1021.91
2017-05-16T08:36:25.939Z,1021.88
2017-05-16T08:37:21.266Z,1021.90
2017-05-16T08:38:14.479Z,1021.93
2017-05-16T08:39:02.419Z,1021.89
2017-05-16T08:39:51.417Z,1021.95
2017-05-16T08:40:51.074Z,1022.00
2017-05-16T08:41:44.913Z,1021.95
2017-05-16T08:42:38.954Z,1021.96
2017-05-16T08:43:33.283Z,1021.95
2017-05-16T08:44:21.865Z,1021.93
2017-05-16T08:45:15.376Z,1021.98
2017-05-16T08:46:10.299Z,1021.92
2017-05-16T08:47:09.939Z,1021.89
2017-05-16T08:48:03.854Z,1021.94
2017-05-16T08:49:04.808Z,1021.96
2017-05-16T08:49:58.291Z,1021.95
2017-05-16T08:50:41.433Z,1022.04
2017-05-16T08:51:34.833Z,1021.97
2017-05-16T08:52:28.823Z,1021.93
2017-05-16T08:53:17.836Z,1021.96
2017-05-16T08:54:12.381Z,1021.97
2017-05-16T08:55:05.906Z,1021.95
2017-05-16T08:55:54.829Z,1021.92
2017-05-16T08:56:43.363Z,1021.85
2017-05-16T08:57:42.895Z,1021.87
2017-05-16T08:58:37.235Z,1021.84
2017-05-16T08:59:24.887Z,1021.85
2017-05-16T09:00:13.064Z,1021.86
2017-05-16T09:01:12.950Z,1021.85
2017-05-16T09:02:01.794Z,1021.81
2017-05-16T09:02:56.300Z,1021.88
2017-05-16T09:03:45.135Z,1021.88
2017-05-16T09:04:45.382Z,1021.84
2017-05-16T09:05:44.862Z,1021.83
2017-05-16T09:06:38.859Z,1021.77
2017-05-16T09:07:33.793Z,1021.76
2017-05-16T09:08:27.338Z,1021.76
2017-05-16T09:09:16.684Z,1021.74
2017-05-16T09:10:09.909Z,1021.63
2017-05-16T09:10:57.881Z,1021.70
2017-05-16T09:11:45.860Z,1021.71
2017-05-16T09:12:45.832Z,1021.70
2017-05-16T09:13:39.806Z,1021.72
2017-05-16T09:14:34.042Z,1021.66
2017-05-16T09:15:21.846Z,1021.69
2017-05-16T09:16:04.746Z,1021.71
2017-05-16T09:16:53.709Z,1021.62
2017-05-16T09:17:47.827Z,1021.58
2017-05-16T09:18:47.353Z,1021.56
2017-05-16T09:19:47.301Z,1021.56
2017-05-16T09:20:42.310Z,1021.58
2017-05-16T09:21:30.812Z,1021.60
2017-05-16T09:22:25.377Z,1021.66
2017-05-16T09:23:19.912Z,1021.67
2017-05-16T09:24:19.725Z,1021.70
2017-05-16T09:25:07.396Z,1021.71
2017-05-16T09:26:07.372Z,1021.66
2017-05-16T09:26:55.824Z,1021.70
2017-05-16T09:27:43.696Z,1021.75
2017-05-16T09:28:32.349Z,1021.81
2017-05-16T09:29:25.871Z,1021.81
2017-05-16T09:30:14.371Z,1021.82
2017-05-16T09:31:01.806Z,1021.88
2017-05-16T09:31:56.802Z,1021.73
2017-05-16T09:32:50.338Z,1021.83
2017-05-16T09:33:44.288Z,1021.90
2017-05-16T09:34:27.358Z,1021.87
2017-05-16T09:35:16.244Z,1021.84
2017-05-16T09:36:09.359Z,1021.91
2017-05-16T09:36:57.288Z,1021.79
2017-05-16T09:37:52.304Z,1021.70
2017-05-16T09:38:46.212Z,1021.67
2017-05-16T09:39:39.839Z,1021.62
2017-05-16T09:40:34.117Z,1021.65
2017-05-16T09:41:27.777Z,1021.62
2017-05-16T09:42:22.755Z,1021.51
2017-05-16T09:43:11.289Z,1021.53
2017-05-16T09:44:05.154Z,1021.51
2017-05-16T09:44:58.806Z,1021.50
2017-05-16T09:45:47.159Z,1021.49
2017-05-16T09:46:34.749Z,1021.46
2017-05-16T09:47:22.719Z,1021.50
2017-05-16T09:48:22.846Z,1021.53
2017-05-16T09:49:17.146Z,1021.58
2017-05-16T09:50:11.781Z,1021.59
2017-05-16T09:51:06.535Z,1021.66
2017-05-16T09:52:00.693Z,1021.68
2017-05-16T09:52:55.265Z,1021.74
2017-05-16T09:53:49.786Z,1021.76
2017-05-16T09:54:44.329Z,1021.76
2017-05-16T09:55:32.888Z,1021.72
2017-05-16T09:56:21.779Z,1021.75
2017-05-16T09:57:21.120Z,1021.68
2017-05-16T09:58:15.956Z,1021.68
2017-05-16T09:59:10.511Z,1021.64
2017-05-16T10:00:09.998Z,1021.54
2017-05-16T10:01:09.985Z,1021.49
2017-05-16T10:02:05.296Z,1021.38
2017-05-16T10:02:59.873Z,1021.38
2017-05-16T10:03:53.015Z,1021.39
2017-05-16T10:04:40.992Z,1021.44
2017-05-16T10:05:28.984Z,1021.54
2017-05-16T10:06:22.966Z,1021.58
2017-05-16T10:07:10.927Z,1021.63
2017-05-16T10:08:06.261Z,1021.64
2017-05-16T10:08:59.433Z,1021.64
2017-05-16T10:09:54.393Z,1021.63
2017-05-16T10:10:42.961Z,1021.61
2017-05-16T10:11:36.517Z,1021.66
2017-05-16T10:12:30.693Z,1021.69
2017-05-16T10:13:24.472Z,1021.66
2017-05-16T10:14:12.412Z,1021.65
2017-05-16T10:15:06.503Z,1021.73
2017-05-16T10:15:55.358Z,1021.63
2017-05-16T10:16:55.502Z,1021.59
2017-05-16T10:17:49.427Z,1021.58
2017-05-16T10:18:43.873Z,1021.53
2017-05-16T10:19:37.406Z,1021.57
2017-05-16T10:20:31.419Z,1021.53
2017-05-16T10:21:20.335Z,1021.55
2017-05-16T10:22:14.881Z,1021.53
2017-05-16T10:23:03.767Z,1021.54
2017-05-16T10:23:56.877Z,1021.53
2017-05-16T10:24:44.903Z,1021.51
2017-05-16T10:25:38.883Z,1021.54
2017-05-16T10:26:39.009Z,1021.57
2017-05-16T10:27:32.940Z,1021.52
2017-05-16T10:28:26.793Z,1021.58
2017-05-16T10:29:21.819Z,1021.58
2017-05-16T10:30:15.293Z,1021.58
2017-05-16T10:31:09.309Z,1021.56
2017-05-16T10:32:09.297Z,1021.65
2017-05-16T10:32:57.287Z,1021.63
2017-05-16T10:33:51.329Z,1021.64
2017-05-16T10:34:46.205Z,1021.64
2017-05-16T10:36:37.606Z,1021.64
2017-05-16T10:37:32.400Z,1021.62
2017-05-16T10:38:26.717Z,1021.64
2017-05-16T10:39:14.503Z,1021.61
2017-05-16T10:40:08.202Z,1021.63
2017-05-16T10:40:56.334Z,1021.63
2017-05-16T10:41:50.116Z,1021.60
2017-05-16T10:42:44.088Z,1021.66
2017-05-16T10:43:32.254Z,1021.71
2017-05-16T10:44:27.093Z,1021.64